Toronto, Ontario

08:25 PM EDT on august 27, 2016 (GMT -0400)
Marina Quay West | | Change Station

Elev 249 ft 43.64 °N, 79.39 °W | Updated 6 minutes ago

Light Rain Showers
Căderi uşoare de ploaie
75.4 °F
Feels Like 78 °F
N
6.8
Vânt variabil Vânt from est

astăzi
High -- | Low -- °F
--% Chance of Precip.
Ieri
High -- | Low -- °F
Precip. -- inch
Presiunea 30.14 inch
Vizibilitatea 15.0 mile
Nori Few 2000 ft
Cer în general noros 10000 ft
Cer acoperit 21000 ft
Indicele de căldură 78 °F
Punctul de rouă 60 °F
Umiditatea 59%
Precipitaţii 0.00 inch
Adâncimea zăpezii Not available.
6:36 AM 8:00 PM
Semilună în descreştere, 20% visible
SPECI CYYZ 280020Z 08005KT 060V130 15SM -SHRA FEW020 BKN100 OVC210 25/14 A3014 RMK SF2AC5CI1 SLP207 DENSITY ALT 1500FT
Presiunea 30.14 inch
Vizibilitatea 15.0 mile
Nori Few 2000 ft
Cer în general noros 10000 ft
Cer acoperit 21000 ft
Indicele de căldură 78 °F
Punctul de rouă 60 °F
Umiditatea 59%
Precipitaţii 0.00 inch
Adâncimea zăpezii Not available.
6:36 AM 8:00 PM
Semilună în descreştere, 20% visible
SPECI CYYZ 280020Z 08005KT 060V130 15SM -SHRA FEW020 BKN100 OVC210 25/14 A3014 RMK SF2AC5CI1 SLP207 DENSITY ALT 1500FT

10-Day Weather Forecast

Almanac

Astronomie

Aug. 27, 2016 Răsărit Apus
Timpul Actual
Crepusculul Civil
Crepusculul nautic
Răsărit Astronomic
Luna
Durata zilei lumină
Lungimea zilei
Tomorrow will be .
, % of the Moon is Illuminated

Extremele de azi

Country Highs Country Lows

Community

WunderPhotos

Upload Photos

1,935,472 photos uploaded!

WunderBlog® & News

Nearby

Calitatea aerului

  Calitatea aerului Index de calitate a aerului Poluat
Not available.

Adâncimea zapezii

Station Depth Elevation

Earthquake Activity

Oraş Distance Mag. Time & Date
Minimum magnitude displayed is 2.5.

Coastal Water Temperatures

Locul Temperatura

Stations

Nearby Weather Stations

Locaţia staţiei Temp Vânt rece Punctul de rouă Umiditatea Vânt Precip. Elev Actualizare Type
                   

Watches & Warnings

There are currently no watches in effect.